createdAt,value
2023-07-06T00:00:31.982Z,0
2023-07-06T00:05:24.194Z,0
2023-07-06T00:07:50.320Z,0
2023-07-06T00:10:15.368Z,0
2023-07-06T00:15:07.644Z,0
2023-07-06T00:17:33.646Z,0
2023-07-06T00:19:59.804Z,0
2023-07-06T00:22:25.843Z,0
2023-07-06T00:24:52.003Z,0
2023-07-06T00:27:18.051Z,0
2023-07-06T00:29:44.169Z,0
2023-07-06T00:32:10.213Z,0
2023-07-06T00:34:36.310Z,0
2023-07-06T00:37:02.444Z,0
2023-07-06T00:41:54.609Z,0
2023-07-06T00:44:19.800Z,0
2023-07-06T00:46:44.835Z,0
2023-07-06T00:49:10.981Z,0
2023-07-06T00:51:37.010Z,0
2023-07-06T00:54:03.127Z,0
2023-07-06T00:56:29.218Z,0
2023-07-06T00:58:55.295Z,0
2023-07-06T01:01:21.421Z,0
2023-07-06T01:03:47.482Z,0
2023-07-06T01:06:13.719Z,0
2023-07-06T01:08:38.758Z,0
2023-07-06T01:11:03.903Z,0
2023-07-06T01:13:30.039Z,0
2023-07-06T01:15:56.005Z,0
2023-07-06T01:18:22.236Z,0
2023-07-06T01:20:48.285Z,0
2023-07-06T01:23:14.316Z,0
2023-07-06T01:25:40.466Z,0
2023-07-06T01:28:06.492Z,0
2023-07-06T01:30:32.683Z,0
2023-07-06T01:32:58.820Z,0
2023-07-06T01:35:24.857Z,0
2023-07-06T01:37:50.910Z,0
2023-07-06T01:40:16.993Z,0
2023-07-06T01:42:42.159Z,0
2023-07-06T01:45:08.177Z,0
2023-07-06T01:47:34.342Z,0
2023-07-06T01:50:00.358Z,0
2023-07-06T01:52:26.567Z,0
2023-07-06T01:54:52.570Z,0
2023-07-06T01:57:18.743Z,0
2023-07-06T01:59:44.915Z,0
2023-07-06T02:02:10.947Z,0
2023-07-06T02:04:36.979Z,0
2023-07-06T02:07:03.149Z,0
2023-07-06T02:09:29.285Z,0
2023-07-06T02:11:55.204Z,0
2023-07-06T02:14:20.317Z,0
2023-07-06T02:16:46.540Z,0
2023-07-06T02:19:12.588Z,0
2023-07-06T02:21:38.786Z,0
2023-07-06T02:24:04.722Z,0
2023-07-06T02:26:30.887Z,0
2023-07-06T02:28:56.902Z,0
2023-07-06T02:31:23.146Z,0
2023-07-06T02:33:49.082Z,0
2023-07-06T02:36:15.195Z,0
2023-07-06T02:38:41.376Z,0
2023-07-06T02:41:07.563Z,0
2023-07-06T02:43:33.493Z,0
2023-07-06T02:45:58.610Z,0
2023-07-06T02:48:24.768Z,0
2023-07-06T02:50:50.950Z,4
2023-07-06T02:53:16.876Z,0
2023-07-06T02:55:42.939Z,4
2023-07-06T02:58:09.064Z,4
2023-07-06T03:00:35.172Z,4
2023-07-06T03:03:01.268Z,12
2023-07-06T03:05:27.400Z,12
2023-07-06T03:07:53.427Z,16
2023-07-06T03:10:19.571Z,28
2023-07-06T03:12:45.625Z,36
2023-07-06T03:15:11.751Z,48
2023-07-06T03:17:36.837Z,60
2023-07-06T03:20:02.921Z,80
2023-07-06T03:22:29.028Z,96
2023-07-06T03:24:55.137Z,120
2023-07-06T03:27:21.206Z,148
2023-07-06T03:29:47.298Z,180
2023-07-06T03:32:13.400Z,220
2023-07-06T03:34:39.501Z,261
2023-07-06T03:37:05.601Z,305
2023-07-06T03:39:31.676Z,353
2023-07-06T03:41:57.776Z,409
2023-07-06T03:44:23.914Z,469
2023-07-06T03:46:49.973Z,526
2023-07-06T03:51:41.185Z,650
2023-07-06T03:54:07.543Z,718
2023-07-06T03:56:33.364Z,787
2023-07-06T03:58:59.471Z,851
2023-07-06T04:01:25.551Z,911
2023-07-06T04:03:51.654Z,983
2023-07-06T04:06:17.745Z,1048
2023-07-06T04:08:43.857Z,1104
2023-07-06T04:11:09.946Z,1160
2023-07-06T04:13:36.024Z,1220
2023-07-06T04:16:02.175Z,1285
2023-07-06T04:18:28.225Z,1345
2023-07-06T04:20:54.475Z,1401
2023-07-06T04:23:20.543Z,1461
2023-07-06T04:25:46.723Z,1525
2023-07-06T04:28:12.734Z,1594
2023-07-06T04:30:38.828Z,1650
2023-07-06T04:33:04.935Z,1710
2023-07-06T04:35:31.019Z,1762
2023-07-06T04:37:57.111Z,1799
2023-07-06T04:40:23.201Z,1835
2023-07-06T04:42:49.312Z,1867
2023-07-06T04:45:15.405Z,1887
2023-07-06T04:47:41.497Z,1895
2023-07-06T04:50:07.585Z,1923
2023-07-06T04:52:32.696Z,1971
2023-07-06T04:54:58.792Z,2027
2023-07-06T04:57:24.890Z,2084
2023-07-06T04:59:50.975Z,2124
2023-07-06T05:02:17.062Z,2160
2023-07-06T05:04:43.157Z,2192
2023-07-06T05:07:09.258Z,2220
2023-07-06T05:09:35.367Z,2248
2023-07-06T05:12:01.455Z,2272
2023-07-06T05:14:27.546Z,2300
2023-07-06T05:16:53.646Z,2329
2023-07-06T05:19:19.794Z,2361
2023-07-06T05:21:45.825Z,2389
2023-07-06T05:24:12.100Z,2409
2023-07-06T05:26:38.129Z,2441
2023-07-06T05:29:04.229Z,2465
2023-07-06T05:31:30.346Z,2497
2023-07-06T05:33:56.422Z,2529
2023-07-06T05:36:22.528Z,2541
2023-07-06T05:38:48.617Z,2562
2023-07-06T05:41:14.702Z,2578
2023-07-06T05:43:40.810Z,2594
2023-07-06T05:46:06.905Z,2614
2023-07-06T05:48:33.045Z,2630
2023-07-06T05:50:59.099Z,2650
2023-07-06T05:53:25.200Z,2670
2023-07-06T05:55:50.308Z,2694
2023-07-06T05:58:16.385Z,2694
2023-07-06T06:00:42.495Z,2710
2023-07-06T06:03:08.570Z,2718
2023-07-06T06:05:34.678Z,2722
2023-07-06T06:08:00.768Z,2730
2023-07-06T06:10:26.957Z,2742
2023-07-06T06:12:52.984Z,2754
2023-07-06T06:15:19.123Z,2770
2023-07-06T06:17:45.147Z,2786
2023-07-06T06:20:11.239Z,2798
2023-07-06T06:22:37.340Z,2814
2023-07-06T06:25:03.437Z,2831
2023-07-06T06:27:29.642Z,2847
2023-07-06T06:29:55.759Z,2859
2023-07-06T06:32:21.842Z,2859
2023-07-06T06:34:47.948Z,2835
2023-07-06T06:37:14.062Z,2863
2023-07-06T06:39:40.146Z,2871
2023-07-06T06:42:06.226Z,2859
2023-07-06T06:44:32.353Z,2843
2023-07-06T06:46:58.423Z,2831
2023-07-06T06:49:24.519Z,2827
2023-07-06T06:51:50.629Z,2831
2023-07-06T06:54:16.794Z,2831
2023-07-06T06:56:42.851Z,2835
2023-07-06T06:59:07.908Z,2831
2023-07-06T07:01:34.053Z,2831
2023-07-06T07:04:00.106Z,2831
2023-07-06T07:06:26.179Z,2831
2023-07-06T07:08:52.272Z,2831
2023-07-06T07:11:18.382Z,2835
2023-07-06T07:13:44.474Z,2831
2023-07-06T07:16:10.674Z,2835
2023-07-06T07:18:36.784Z,2839
2023-07-06T07:21:02.884Z,2843
2023-07-06T07:23:28.972Z,2847
2023-07-06T07:25:55.100Z,2847
2023-07-06T07:28:21.175Z,2851
2023-07-06T07:30:47.267Z,2855
2023-07-06T07:33:13.553Z,2847
2023-07-06T07:35:39.471Z,2851
2023-07-06T07:38:05.613Z,2855
2023-07-06T07:40:31.649Z,2859
2023-07-06T07:42:57.727Z,2863
2023-07-06T07:45:23.927Z,2863
2023-07-06T07:47:48.990Z,2867
2023-07-06T07:50:15.138Z,2863
2023-07-06T07:52:41.141Z,2867
2023-07-06T07:55:07.263Z,2871
2023-07-06T07:57:33.383Z,2875
2023-07-06T07:59:59.419Z,2875
2023-07-06T08:02:25.513Z,2879
2023-07-06T08:04:51.604Z,2883
2023-07-06T08:07:17.841Z,2899
2023-07-06T08:09:43.800Z,2907
2023-07-06T08:12:09.922Z,2927
2023-07-06T08:14:36.010Z,2943
2023-07-06T08:17:02.168Z,2943
2023-07-06T08:19:28.312Z,2955
2023-07-06T08:21:54.494Z,2975
2023-07-06T08:24:20.498Z,2991
2023-07-06T08:26:46.596Z,2991
2023-07-06T08:29:12.699Z,3031
2023-07-06T08:31:38.764Z,3039
2023-07-06T08:34:04.939Z,3088
2023-07-06T08:36:30.970Z,3140
2023-07-06T08:38:57.049Z,3120
2023-07-06T08:41:23.172Z,3148
2023-07-06T08:43:49.236Z,3164
2023-07-06T08:46:15.340Z,3132
2023-07-06T08:48:41.456Z,3212
2023-07-06T08:51:06.593Z,3320
2023-07-06T08:53:32.652Z,3437
2023-07-06T08:55:58.731Z,3525
2023-07-06T08:58:24.818Z,3738
2023-07-06T09:00:50.952Z,3766
2023-07-06T09:03:17.011Z,3899
2023-07-06T09:05:43.115Z,4091
2023-07-06T09:08:09.283Z,4124
2023-07-06T09:10:35.402Z,4047
2023-07-06T09:13:01.437Z,4513
2023-07-06T09:15:27.485Z,4714
2023-07-06T09:17:53.657Z,4850
2023-07-06T09:20:19.672Z,4505
2023-07-06T09:22:45.901Z,4854
2023-07-06T09:25:12.030Z,4814
2023-07-06T09:27:38.111Z,4871
2023-07-06T09:30:04.325Z,5176
2023-07-06T09:32:30.350Z,5059
2023-07-06T09:34:56.413Z,4545
2023-07-06T09:37:22.463Z,4477
2023-07-06T09:39:48.610Z,4614
2023-07-06T09:42:14.657Z,4597
2023-07-06T09:44:40.818Z,4152
2023-07-06T09:47:06.854Z,4529
2023-07-06T09:49:33.012Z,4610
2023-07-06T09:51:59.116Z,5107
2023-07-06T09:54:24.163Z,5364
2023-07-06T09:56:50.241Z,5597
2023-07-06T09:59:16.344Z,5589
2023-07-06T10:01:42.517Z,6216
2023-07-06T10:04:08.599Z,6164
2023-07-06T10:06:34.678Z,5634
2023-07-06T10:09:00.708Z,5778
2023-07-06T10:11:26.843Z,6533
2023-07-06T10:13:53.020Z,6417
2023-07-06T10:16:19.219Z,6730
2023-07-06T10:18:45.197Z,7184
2023-07-06T10:21:11.244Z,7416
2023-07-06T10:23:37.298Z,8179
2023-07-06T10:26:02.537Z,8304
2023-07-06T10:28:28.528Z,8079
2023-07-06T10:30:54.677Z,7613
2023-07-06T10:33:20.669Z,7296
2023-07-06T10:35:46.890Z,6806
2023-07-06T10:38:12.995Z,5722
2023-07-06T10:40:39.035Z,5216
2023-07-06T10:43:05.056Z,5734
2023-07-06T10:45:31.130Z,5674
2023-07-06T10:47:57.306Z,5782
2023-07-06T10:50:23.352Z,5899
2023-07-06T10:52:49.443Z,6384
2023-07-06T10:55:15.625Z,7047
2023-07-06T10:57:40.641Z,7533
2023-07-06T11:00:06.750Z,8083
2023-07-06T11:02:32.832Z,8444
2023-07-06T11:04:58.987Z,9047
2023-07-06T11:07:25.018Z,9730
2023-07-06T11:09:51.180Z,9991
2023-07-06T11:12:17.204Z,10119
2023-07-06T11:14:43.300Z,10091
2023-07-06T11:17:09.384Z,9051
2023-07-06T11:19:35.557Z,7509
2023-07-06T11:22:01.585Z,7449
2023-07-06T11:24:27.673Z,6637
2023-07-06T11:26:53.776Z,6927
2023-07-06T11:29:18.884Z,7035
2023-07-06T11:31:44.968Z,6955
2023-07-06T11:34:11.068Z,6244
2023-07-06T11:36:37.193Z,6517
2023-07-06T11:39:03.304Z,6927
2023-07-06T11:41:29.432Z,7890
2023-07-06T11:43:55.583Z,7999
2023-07-06T11:46:21.537Z,7352
2023-07-06T11:48:47.694Z,7429
2023-07-06T11:51:13.733Z,7075
2023-07-06T11:53:39.890Z,7075
2023-07-06T11:56:05.947Z,7087
2023-07-06T11:58:32.067Z,7260
2023-07-06T12:00:57.200Z,7633
2023-07-06T12:03:23.205Z,7838
2023-07-06T12:05:49.417Z,7971
2023-07-06T12:08:15.426Z,8015
2023-07-06T12:10:41.514Z,8248
2023-07-06T12:13:07.625Z,8645
2023-07-06T12:15:33.701Z,9396
2023-07-06T12:17:59.797Z,10151
2023-07-06T12:20:25.896Z,11179
2023-07-06T12:23:04.241Z,11705
2023-07-06T12:25:18.102Z,23676
2023-07-06T12:27:44.183Z,110061
2023-07-06T12:30:10.269Z,12167
2023-07-06T12:35:01.517Z,11990
2023-07-06T12:37:27.588Z,13500
2023-07-06T12:39:53.665Z,1401
2023-07-06T12:42:19.768Z,62130
2023-07-06T12:44:45.880Z,15729
2023-07-06T12:47:11.964Z,12432
2023-07-06T12:49:38.127Z,11798
2023-07-06T12:52:04.182Z,10978
2023-07-06T12:54:30.256Z,11002
2023-07-06T12:56:56.378Z,11047
2023-07-06T12:59:22.428Z,10717
2023-07-06T13:01:48.598Z,10661
2023-07-06T13:04:13.646Z,10914
2023-07-06T13:06:39.735Z,10637
2023-07-06T13:09:05.883Z,10774
2023-07-06T13:11:31.950Z,11006
2023-07-06T13:13:58.039Z,11713
2023-07-06T13:16:24.130Z,12340
2023-07-06T13:18:50.303Z,8625
2023-07-06T13:21:16.333Z,10822
2023-07-06T13:23:42.477Z,8882
2023-07-06T13:26:08.579Z,8368
2023-07-06T13:28:34.619Z,7501
2023-07-06T13:31:00.809Z,7971
2023-07-06T13:33:26.891Z,7429
2023-07-06T13:35:52.043Z,8023
2023-07-06T13:38:18.209Z,8264
2023-07-06T13:40:44.204Z,8485
2023-07-06T13:43:10.213Z,9059
2023-07-06T13:45:36.316Z,8380
2023-07-06T13:48:02.456Z,8011
2023-07-06T13:50:28.489Z,9589
2023-07-06T13:52:54.656Z,10404
2023-07-06T13:55:20.698Z,12673
2023-07-06T13:57:46.765Z,14572
2023-07-06T14:00:12.853Z,13621
2023-07-06T14:02:38.957Z,11464
2023-07-06T14:05:05.105Z,23290
2023-07-06T14:07:30.154Z,85871
2023-07-06T14:09:56.268Z,94095
2023-07-06T14:12:22.360Z,96569
2023-07-06T14:14:48.581Z,93999
2023-07-06T14:17:14.620Z,89212
2023-07-06T14:19:40.631Z,89051
2023-07-06T14:22:06.729Z,93999
2023-07-06T14:24:32.872Z,90433
2023-07-06T14:26:58.922Z,91878
2023-07-06T14:29:25.018Z,91525
2023-07-06T14:31:51.135Z,86610
2023-07-06T14:34:17.212Z,83205
2023-07-06T14:36:43.487Z,79221
2023-07-06T14:39:08.432Z,85678
2023-07-06T14:41:34.586Z,82626
2023-07-06T14:44:00.611Z,74049
2023-07-06T14:46:26.702Z,80956
2023-07-06T14:48:52.860Z,80699
2023-07-06T14:51:18.954Z,78514
2023-07-06T14:53:45.035Z,12468
2023-07-06T14:56:11.098Z,74017
2023-07-06T14:58:37.226Z,85678
2023-07-06T15:01:03.310Z,73021
2023-07-06T15:03:29.387Z,76940
2023-07-06T15:05:55.472Z,76747
2023-07-06T15:08:21.574Z,82723
2023-07-06T15:10:46.720Z,48316
2023-07-06T15:13:12.790Z,38968
2023-07-06T15:15:38.888Z,66210
2023-07-06T15:18:05.107Z,29459
2023-07-06T15:20:31.071Z,46935
2023-07-06T15:22:57.165Z,50437
2023-07-06T15:25:22.324Z,74563
2023-07-06T15:27:48.389Z,11187
2023-07-06T15:30:14.473Z,70258
2023-07-06T15:32:40.564Z,68138
2023-07-06T15:35:06.691Z,75848
2023-07-06T15:37:32.778Z,69037
2023-07-06T15:39:58.866Z,24061
2023-07-06T15:42:24.957Z,9460
2023-07-06T15:44:51.075Z,10304
2023-07-06T15:47:17.151Z,27595
2023-07-06T15:49:43.279Z,62516
2023-07-06T15:52:09.418Z,62580
2023-07-06T15:54:35.443Z,33474
2023-07-06T15:57:00.623Z,51754
2023-07-06T15:59:26.669Z,58629
2023-07-06T16:01:52.759Z,56315
2023-07-06T16:04:18.849Z,57954
2023-07-06T16:06:44.942Z,34245
2023-07-06T16:09:11.039Z,52750
2023-07-06T16:11:37.210Z,50019
2023-07-06T16:14:03.251Z,49955
2023-07-06T16:16:29.337Z,48380
2023-07-06T16:18:55.420Z,44204
2023-07-06T16:21:21.542Z,42502
2023-07-06T16:23:47.615Z,47738
2023-07-06T16:26:13.788Z,44011
2023-07-06T16:28:38.830Z,44044
2023-07-06T16:31:04.933Z,43915
2023-07-06T16:33:31.027Z,43594
2023-07-06T16:35:57.177Z,39803
2023-07-06T16:38:23.210Z,40927
2023-07-06T16:40:49.310Z,39546
2023-07-06T16:43:15.416Z,39353
2023-07-06T16:45:41.560Z,37201
2023-07-06T16:48:07.621Z,35466
2023-07-06T16:50:33.699Z,35562
2023-07-06T16:52:59.794Z,33282
2023-07-06T16:55:25.889Z,33603
2023-07-06T16:57:52.003Z,33378
2023-07-06T17:00:17.100Z,33025
2023-07-06T17:02:43.199Z,30422
2023-07-06T17:05:09.302Z,20688
2023-07-06T17:07:35.460Z,20110
2023-07-06T17:10:01.527Z,12227
2023-07-06T17:12:27.601Z,8878
2023-07-06T17:14:53.854Z,7308
2023-07-06T17:17:19.928Z,7292
2023-07-06T17:19:45.910Z,6939
2023-07-06T17:22:11.975Z,6320
2023-07-06T17:24:38.125Z,5806
2023-07-06T17:27:04.176Z,5525
2023-07-06T17:29:30.246Z,5364
2023-07-06T17:31:55.367Z,5224
2023-07-06T17:34:21.458Z,6605
2023-07-06T17:36:47.547Z,5059
2023-07-06T17:39:13.646Z,4923
2023-07-06T17:41:39.755Z,4766
2023-07-06T17:44:05.876Z,4666
2023-07-06T17:46:31.939Z,4533
2023-07-06T17:48:58.024Z,4409
2023-07-06T17:51:24.133Z,4284
2023-07-06T17:53:50.310Z,4152
2023-07-06T17:56:16.322Z,4035
2023-07-06T17:58:42.400Z,3911
2023-07-06T18:01:08.501Z,3778
2023-07-06T18:03:33.616Z,3638
2023-07-06T18:05:59.723Z,3501
2023-07-06T18:08:25.806Z,3361
2023-07-06T18:10:51.931Z,3256
2023-07-06T18:13:18.004Z,3136
2023-07-06T18:15:44.070Z,3007
2023-07-06T18:18:10.189Z,2887
2023-07-06T18:20:36.276Z,2766
2023-07-06T18:23:02.384Z,2662
2023-07-06T18:25:28.497Z,2562
2023-07-06T18:27:54.536Z,2453
2023-07-06T18:30:20.670Z,2345
2023-07-06T18:32:46.759Z,2244
2023-07-06T18:35:11.874Z,2140
2023-07-06T18:37:37.962Z,2027
2023-07-06T18:42:30.154Z,1815
2023-07-06T18:44:56.327Z,1698
2023-07-06T18:47:22.338Z,1594
2023-07-06T18:49:48.434Z,1489
2023-07-06T18:52:14.514Z,1381
2023-07-06T18:54:40.614Z,1272
2023-07-06T18:57:06.723Z,1172
2023-07-06T18:59:32.818Z,1064
2023-07-06T19:01:58.901Z,959
2023-07-06T19:04:25.014Z,863
2023-07-06T19:06:50.111Z,775
2023-07-06T19:09:16.202Z,682
2023-07-06T19:11:42.327Z,594
2023-07-06T19:14:08.424Z,509
2023-07-06T19:16:34.579Z,437
2023-07-06T19:19:00.600Z,369
2023-07-06T19:21:26.674Z,305
2023-07-06T19:23:52.788Z,252
2023-07-06T19:26:18.878Z,204
2023-07-06T19:28:44.984Z,168
2023-07-06T19:31:11.055Z,132
2023-07-06T19:33:37.184Z,104
2023-07-06T19:36:03.324Z,84
2023-07-06T19:38:28.405Z,64
2023-07-06T19:40:54.467Z,48
2023-07-06T19:43:20.568Z,36
2023-07-06T19:45:46.662Z,24
2023-07-06T19:48:12.854Z,20
2023-07-06T19:50:39.073Z,12
2023-07-06T19:53:05.035Z,12
2023-07-06T19:55:31.143Z,8
2023-07-06T19:57:57.208Z,4
2023-07-06T20:00:23.289Z,4
2023-07-06T20:02:49.379Z,0
2023-07-06T20:05:15.531Z,4
2023-07-06T20:07:41.560Z,0
2023-07-06T20:10:06.746Z,0
2023-07-06T20:12:32.727Z,0
2023-07-06T20:14:58.806Z,0
2023-07-06T20:17:24.905Z,0
2023-07-06T20:19:51.002Z,0
2023-07-06T20:22:17.121Z,0
2023-07-06T20:24:43.199Z,0
2023-07-06T20:27:09.285Z,0
2023-07-06T20:29:35.474Z,0
2023-07-06T20:32:01.548Z,0
2023-07-06T20:34:27.564Z,0
2023-07-06T20:36:53.694Z,0
2023-07-06T20:39:19.757Z,0
2023-07-06T20:41:44.898Z,0
2023-07-06T20:44:10.956Z,0
2023-07-06T20:46:37.129Z,0
2023-07-06T20:49:03.144Z,0
2023-07-06T20:51:29.259Z,0
2023-07-06T20:53:55.372Z,0
2023-07-06T20:58:47.575Z,0
2023-07-06T21:01:13.716Z,0
2023-07-06T21:03:39.930Z,0
2023-07-06T21:06:05.972Z,0
2023-07-06T21:08:48.406Z,0
2023-07-06T21:10:58.090Z,0
2023-07-06T21:13:23.110Z,0
2023-07-06T21:15:49.379Z,0
2023-07-06T21:18:15.302Z,0
2023-07-06T21:20:41.409Z,0
2023-07-06T21:23:07.668Z,0
2023-07-06T21:27:59.741Z,0
2023-07-06T21:30:25.767Z,0
2023-07-06T21:32:51.919Z,0
2023-07-06T21:35:18.002Z,0
2023-07-06T21:37:44.083Z,0
2023-07-06T21:40:10.140Z,0
2023-07-06T21:42:36.250Z,0
2023-07-06T21:45:01.362Z,0
2023-07-06T21:47:27.523Z,0
2023-07-06T21:49:53.617Z,0
2023-07-06T21:52:19.760Z,0
2023-07-06T21:54:45.858Z,0
2023-07-06T21:57:11.885Z,0
2023-07-06T21:59:45.353Z,0
2023-07-06T22:02:04.113Z,0
2023-07-06T22:04:30.155Z,0
2023-07-06T22:06:56.261Z,0
2023-07-06T22:09:22.305Z,0
2023-07-06T22:11:48.522Z,0
2023-07-06T22:14:14.655Z,0
2023-07-06T22:16:39.772Z,0
2023-07-06T22:19:05.720Z,0
2023-07-06T22:21:31.795Z,0
2023-07-06T22:23:57.885Z,0
2023-07-06T22:26:24.014Z,0
2023-07-06T22:28:50.164Z,0
2023-07-06T22:31:16.238Z,0
2023-07-06T22:33:42.291Z,0
2023-07-06T22:36:08.375Z,0
2023-07-06T22:38:34.544Z,0
2023-07-06T22:41:00.547Z,0
2023-07-06T22:43:26.645Z,0
2023-07-06T22:45:52.821Z,0
2023-07-06T22:48:17.874Z,0
2023-07-06T22:50:43.961Z,0
2023-07-06T22:53:10.138Z,0
2023-07-06T22:55:36.184Z,0
2023-07-06T22:58:02.247Z,0
2023-07-06T23:00:28.316Z,0
2023-07-06T23:02:54.416Z,0
2023-07-06T23:05:20.519Z,0
2023-07-06T23:07:46.660Z,0
2023-07-06T23:10:12.724Z,0
2023-07-06T23:12:38.791Z,0
2023-07-06T23:15:04.919Z,0
2023-07-06T23:17:31.080Z,0
2023-07-06T23:19:56.097Z,0
2023-07-06T23:22:22.189Z,0
2023-07-06T23:24:48.374Z,0
2023-07-06T23:27:14.460Z,0
2023-07-06T23:29:40.543Z,0
2023-07-06T23:32:06.628Z,0
2023-07-06T23:34:31.769Z,0
2023-07-06T23:36:57.773Z,0
2023-07-06T23:39:23.861Z,0
2023-07-06T23:41:49.960Z,0
2023-07-06T23:44:16.069Z,0
2023-07-06T23:46:42.152Z,0
2023-07-06T23:49:08.304Z,0
2023-07-06T23:51:34.421Z,0
2023-07-06T23:54:00.457Z,0
2023-07-06T23:58:52.650Z,0
